Time;durP1;ratioP1;P1;durP2;ratioP2;P2;SDS_P1;SDS_P2;PMS_P1;PMS_P2;Temp;Humidity;BMP_temperature;BMP_pressure;BME280_temperature;BME280_humidity;BME280_pressure;Samples;Min_cycle;Max_cycle;Signal;HPM_P1;HPM_P2
2021/11/01 00:00:55;;;;;;;0.40;0.40;;;12.90;99.90;;;;;;5015766;28;20452;-87
2021/11/01 00:03:22;;;;;;;0.40;0.30;;;13.00;99.90;;;;;;5015031;28;20490;-86
2021/11/01 00:05:49;;;;;;;0.40;0.30;;;13.10;99.90;;;;;;5014956;28;20438;-87
2021/11/01 00:08:16;;;;;;;0.40;0.30;;;13.10;99.90;;;;;;5015090;28;20864;-87
2021/11/01 00:10:43;;;;;;;0.43;0.40;;;13.20;99.90;;;;;;5014756;28;20431;-86
2021/11/01 00:13:09;;;;;;;0.40;0.37;;;13.30;99.90;;;;;;5015188;28;20478;-87
2021/11/01 00:15:38;;;;;;;2.20;0.40;;;13.40;99.90;;;;;;5015204;28;20439;-88
2021/11/01 00:18:04;;;;;;;0.30;0.30;;;13.60;99.90;;;;;;5015171;28;20455;-88
2021/11/01 00:20:31;;;;;;;0.60;0.33;;;13.70;99.90;;;;;;5015074;28;20455;-91
2021/11/01 00:22:58;;;;;;;1.33;0.30;;;13.70;99.90;;;;;;5015097;28;20471;-85
2021/11/01 00:25:25;;;;;;;0.40;0.40;;;13.80;99.90;;;;;;5014852;28;20488;-88
2021/11/01 00:27:52;;;;;;;0.40;0.40;;;13.90;99.90;;;;;;5015240;28;20448;-89
2021/11/01 00:30:19;;;;;;;0.40;0.40;;;13.90;99.90;;;;;;5015363;28;20452;-87
2021/11/01 00:32:48;;;;;;;0.30;0.30;;;13.90;99.90;;;;;;5015025;28;20475;-88
2021/11/01 00:35:16;;;;;;;0.30;0.30;;;13.90;99.90;;;;;;5014862;28;20447;-88
2021/11/01 00:37:42;;;;;;;0.60;0.60;;;13.90;99.90;;;;;;5014746;28;20809;-88
2021/11/01 00:40:10;;;;;;;0.40;0.40;;;13.90;99.90;;;;;;5014561;28;20443;-86
2021/11/01 00:42:37;;;;;;;0.30;0.30;;;13.90;99.90;;;;;;5014903;28;20491;-88
2021/11/01 00:45:04;;;;;;;0.73;0.40;;;13.90;99.90;;;;;;5014118;28;20479;-87
2021/11/01 00:47:31;;;;;;;0.37;0.30;;;13.90;99.90;;;;;;5014255;28;20452;-88
2021/11/01 00:49:59;;;;;;;0.50;0.33;;;13.90;99.90;;;;;;5014071;28;20924;-88
2021/11/01 00:52:28;;;;;;;0.30;0.30;;;13.90;99.90;;;;;;5013957;28;20470;-86
2021/11/01 00:54:59;;;;;;;0.40;0.30;;;14.00;99.90;;;;;;5014437;28;20467;-87
2021/11/01 00:57:26;;;;;;;0.40;0.40;;;14.00;99.90;;;;;;5014443;28;20432;-87
2021/11/01 00:59:53;;;;;;;0.40;0.40;;;14.00;99.90;;;;;;5014127;28;20892;-87
2021/11/01 01:02:20;;;;;;;0.30;0.20;;;14.00;99.90;;;;;;5013738;28;20467;-87
2021/11/01 01:04:47;;;;;;;7.93;1.60;;;14.10;99.90;;;;;;5014215;28;20499;-88
2021/11/01 01:07:15;;;;;;;0.50;0.50;;;14.10;99.90;;;;;;5013974;28;20958;-87
2021/11/01 01:09:42;;;;;;;0.40;0.30;;;14.00;99.90;;;;;;5014394;28;20456;-88
2021/11/01 01:12:09;;;;;;;0.30;0.30;;;14.00;99.90;;;;;;5014276;28;20990;-88
2021/11/01 01:14:41;;;;;;;0.40;0.30;;;14.00;99.90;;;;;;5018288;28;20455;-89
2021/11/01 01:17:08;;;;;;;0.40;0.30;;;14.00;99.90;;;;;;5018227;28;20483;-88
2021/11/01 01:19:45;;;;;;;0.30;0.30;;;13.90;99.90;;;;;;5018308;28;20461;-87
2021/11/01 01:22:18;;;;;;;0.33;0.30;;;13.90;99.90;;;;;;5018245;28;20479;-89
2021/11/01 01:24:47;;;;;;;0.60;0.30;;;13.90;99.90;;;;;;5019755;28;20511;-88
2021/11/01 01:27:14;;;;;;;1.17;0.30;;;13.90;99.90;;;;;;5027511;28;20832;-88
2021/11/01 01:29:40;;;;;;;0.40;0.30;;;13.90;99.90;;;;;;5022972;28;20498;-88
2021/11/01 01:32:08;;;;;;;0.30;0.20;;;13.90;99.90;;;;;;5018301;28;20478;-88
2021/11/01 01:34:34;;;;;;;0.40;0.30;;;13.90;99.90;;;;;;5017914;28;20443;-87
2021/11/01 01:37:01;;;;;;;0.30;0.27;;;13.90;99.90;;;;;;5018148;28;20440;-88
2021/11/01 01:39:28;;;;;;;0.40;0.40;;;13.90;99.90;;;;;;5018139;28;20443;-88
2021/11/01 01:41:56;;;;;;;0.30;0.30;;;13.90;99.90;;;;;;5017819;28;20451;-88
2021/11/01 01:44:23;;;;;;;0.90;0.50;;;13.90;99.90;;;;;;5017618;28;21029;-89
2021/11/01 01:46:50;;;;;;;0.40;0.30;;;13.80;99.90;;;;;;5017708;28;20451;-88
2021/11/01 01:49:17;;;;;;;0.40;0.30;;;13.90;99.90;;;;;;5017863;28;20538;-88
2021/11/01 01:51:45;;;;;;;0.37;0.33;;;13.90;99.90;;;;;;5017522;28;20451;-88
2021/11/01 01:54:12;;;;;;;0.30;0.20;;;14.00;99.90;;;;;;5017617;28;20813;-88
2021/11/01 01:56:39;;;;;;;0.80;0.40;;;14.00;99.90;;;;;;5017940;28;20447;-88
2021/11/01 01:59:18;;;;;;;0.33;0.30;;;14.00;99.90;;;;;;5017511;28;20901;-88
2021/11/01 02:01:46;;;;;;;0.37;0.30;;;14.00;99.90;;;;;;5018429;28;20861;-88
2021/11/01 02:04:15;;;;;;;0.40;0.30;;;14.00;99.90;;;;;;5017163;28;20494;-89
2021/11/01 02:06:53;;;;;;;0.40;0.33;;;13.90;99.90;;;;;;5017258;28;20974;-88
2021/11/01 02:09:23;;;;;;;0.70;0.40;;;13.90;99.90;;;;;;5017766;28;20806;-90
2021/11/01 02:11:57;;;;;;;0.37;0.30;;;13.80;99.90;;;;;;5017518;28;20455;-90
2021/11/01 02:14:28;;;;;;;0.30;0.30;;;13.60;99.90;;;;;;5017075;28;20420;-88
2021/11/01 02:16:56;;;;;;;0.30;0.30;;;13.30;99.90;;;;;;5017476;28;20468;-90
2021/11/01 02:19:28;;;;;;;0.30;0.30;;;13.10;99.90;;;;;;5017613;28;20447;-89
2021/11/01 02:22:02;;;;;;;0.40;0.30;;;13.00;99.90;;;;;;5017212;28;20427;-89
2021/11/01 02:24:41;;;;;;;0.30;0.27;;;12.70;99.90;;;;;;5017375;28;20951;-89
2021/11/01 02:27:11;;;;;;;0.30;0.30;;;12.50;99.90;;;;;;5017217;28;20927;-89
2021/11/01 02:29:42;;;;;;;0.30;0.20;;;12.40;99.90;;;;;;5017568;28;20443;-90
2021/11/01 02:32:09;;;;;;;0.30;0.20;;;12.20;99.90;;;;;;5017183;28;20467;-89
2021/11/01 02:34:36;;;;;;;0.30;0.20;;;12.10;99.90;;;;;;5017200;28;20469;-89
2021/11/01 02:37:03;;;;;;;0.30;0.20;;;12.00;99.90;;;;;;5017143;28;20451;-88
2021/11/01 02:39:32;;;;;;;0.30;0.20;;;11.90;99.90;;;;;;5016657;28;20432;-89
2021/11/01 02:42:00;;;;;;;0.30;0.30;;;11.80;99.90;;;;;;5016721;28;20452;-89
2021/11/01 02:44:28;;;;;;;0.30;0.20;;;11.70;99.90;;;;;;5016929;28;20486;-89
2021/11/01 02:46:55;;;;;;;0.30;0.20;;;11.60;99.90;;;;;;5016724;28;20534;-90
2021/11/01 02:49:23;;;;;;;0.40;0.40;;;11.60;99.90;;;;;;5016955;28;20447;-89
2021/11/01 02:51:50;;;;;;;0.50;0.30;;;11.60;99.90;;;;;;5016799;28;20893;-89
2021/11/01 02:54:16;;;;;;;0.30;0.30;;;11.60;99.90;;;;;;5016778;28;20971;-89
2021/11/01 02:56:44;;;;;;;0.30;0.30;;;11.50;99.90;;;;;;5016591;28;20830;-88
2021/11/01 02:59:10;;;;;;;0.30;0.20;;;11.50;99.90;;;;;;5016785;28;20456;-89
2021/11/01 03:01:39;;;;;;;0.40;0.30;;;11.50;99.90;;;;;;5016671;28;20487;-89
2021/11/01 03:04:05;;;;;;;0.30;0.30;;;11.50;99.90;;;;;;5016342;28;20483;-89
2021/11/01 03:06:33;;;;;;;0.30;0.30;;;11.40;99.90;;;;;;5016674;28;20487;-89
2021/11/01 03:09:01;;;;;;;0.30;0.20;;;11.40;99.90;;;;;;5017007;28;20456;-89
2021/11/01 03:11:29;;;;;;;0.93;0.93;;;11.40;99.90;;;;;;5016618;28;20451;-90
2021/11/01 03:13:58;;;;;;;0.30;0.30;;;11.30;99.90;;;;;;5015927;28;20474;-85
2021/11/01 03:16:27;;;;;;;0.30;0.20;;;11.30;99.90;;;;;;5015812;28;20451;-90
2021/11/01 03:19:10;;;;;;;0.30;0.20;;;11.30;99.90;;;;;;5016065;28;20486;-88
2021/11/01 03:21:42;;;;;;;0.30;0.30;;;11.30;99.90;;;;;;5015383;28;20436;-87
2021/11/01 03:24:10;;;;;;;0.30;0.20;;;11.30;99.90;;;;;;5015642;28;20447;-86
2021/11/01 03:26:38;;;;;;;0.30;0.20;;;11.20;99.90;;;;;;5015149;28;20986;-86
2021/11/01 03:29:06;;;;;;;0.30;0.20;;;11.20;99.90;;;;;;5015103;28;20440;-86
2021/11/01 03:31:35;;;;;;;0.30;0.20;;;11.20;99.90;;;;;;5014912;28;20805;-83
2021/11/01 03:34:04;;;;;;;0.30;0.20;;;11.20;99.90;;;;;;5015010;28;20468;-83
2021/11/01 03:36:32;;;;;;;0.30;0.20;;;11.20;99.90;;;;;;5014505;28;20451;-83
2021/11/01 03:39:01;;;;;;;0.40;0.40;;;11.10;99.90;;;;;;5014991;28;20487;-83
2021/11/01 03:41:30;;;;;;;0.30;0.20;;;11.10;99.90;;;;;;5014876;28;20805;-84
2021/11/01 03:44:02;;;;;;;0.30;0.20;;;11.00;99.90;;;;;;5014766;28;20467;-83
2021/11/01 03:46:35;;;;;;;0.40;0.30;;;11.00;99.90;;;;;;5014785;28;20474;-83
2021/11/01 03:49:05;;;;;;;0.30;0.20;;;11.00;99.90;;;;;;5015112;28;20436;-85
2021/11/01 03:51:46;;;;;;;0.30;0.23;;;10.90;99.90;;;;;;5014825;28;20505;-82
2021/11/01 03:54:13;;;;;;;0.30;0.20;;;10.90;99.90;;;;;;5015005;28;20494;-83
2021/11/01 03:56:41;;;;;;;0.30;0.20;;;10.90;99.90;;;;;;5014407;28;20443;-82
2021/11/01 03:59:08;;;;;;;0.90;0.30;;;10.80;99.90;;;;;;5017221;28;20455;-82
2021/11/01 04:01:38;;;;;;;0.30;0.20;;;10.80;99.90;;;;;;5014844;28;20451;-82
2021/11/01 04:04:07;;;;;;;0.30;0.20;;;10.80;99.90;;;;;;5014035;28;20582;-81
2021/11/01 04:06:34;;;;;;;0.30;0.20;;;10.80;99.90;;;;;;5014140;28;20562;-85
2021/11/01 04:09:03;;;;;;;0.30;0.20;;;10.80;99.90;;;;;;5014428;28;20455;-85
2021/11/01 04:11:30;;;;;;;0.30;0.30;;;10.80;99.90;;;;;;5014363;28;20459;-85
2021/11/01 04:14:00;;;;;;;0.47;0.30;;;10.70;99.90;;;;;;5014285;28;20848;-85
2021/11/01 04:16:35;;;;;;;0.30;0.20;;;10.80;99.90;;;;;;5014252;28;20443;-85
2021/11/01 04:19:09;;;;;;;0.30;0.30;;;10.70;99.90;;;;;;5014562;28;20434;-84
2021/11/01 04:21:37;;;;;;;0.30;0.20;;;10.70;99.90;;;;;;5013964;28;20947;-85
2021/11/01 04:24:05;;;;;;;0.30;0.20;;;10.60;99.90;;;;;;5014123;28;20472;-85
2021/11/01 04:26:32;;;;;;;0.30;0.20;;;10.60;99.90;;;;;;5014164;28;20519;-85
2021/11/01 04:29:01;;;;;;;0.30;0.20;;;10.60;99.90;;;;;;5014151;28;20451;-83
2021/11/01 04:31:32;;;;;;;0.30;0.20;;;10.60;99.90;;;;;;5014075;28;20459;-83
2021/11/01 04:34:02;;;;;;;0.33;0.30;;;10.50;99.90;;;;;;5014098;28;20471;-83
2021/11/01 04:36:29;;;;;;;0.30;0.20;;;10.60;99.90;;;;;;5013892;28;20523;-83
2021/11/01 04:39:04;;;;;;;0.63;0.30;;;10.60;99.90;;;;;;5013610;28;20447;-84
2021/11/01 04:41:36;;;;;;;0.30;0.30;;;10.50;99.90;;;;;;5013666;28;20446;-82
2021/11/01 04:54:57;;;;;;;0.30;0.20;;;10.40;99.90;;;;;;5013997;28;20403;-84
2021/11/01 04:57:25;;;;;;;0.30;0.20;;;10.30;99.90;;;;;;5013776;28;20458;-85
2021/11/01 04:59:52;;;;;;;1.03;0.30;;;10.30;99.90;;;;;;5014414;28;20806;-85
2021/11/01 05:02:20;;;;;;;0.30;0.20;;;10.30;99.90;;;;;;5013895;28;20480;-86
2021/11/01 05:04:49;;;;;;;0.43;0.43;;;10.20;99.90;;;;;;5013362;28;20582;-85
2021/11/01 05:07:16;;;;;;;0.30;0.30;;;10.20;99.90;;;;;;5013294;28;21030;-85
2021/11/01 05:09:46;;;;;;;0.30;0.20;;;10.20;99.90;;;;;;5013915;28;20443;-85
2021/11/01 05:12:28;;;;;;;0.30;0.20;;;10.20;99.90;;;;;;5013476;28;20525;-85
2021/11/01 05:15:01;;;;;;;0.30;0.20;;;10.20;99.90;;;;;;5013441;28;20483;-85
2021/11/01 05:17:38;;;;;;;0.30;0.20;;;10.20;99.90;;;;;;5013800;28;20527;-83
2021/11/01 05:20:11;;;;;;;0.30;0.30;;;10.10;99.90;;;;;;5013511;28;20440;-83
2021/11/01 05:22:44;;;;;;;0.30;0.30;;;10.10;99.90;;;;;;5013322;28;20475;-83
2021/11/01 05:25:15;;;;;;;0.30;0.20;;;10.20;99.90;;;;;;5013441;28;20529;-86
2021/11/01 05:27:53;;;;;;;0.30;0.20;;;10.20;99.90;;;;;;5013366;28;20455;-85
2021/11/01 05:30:24;;;;;;;0.30;0.20;;;10.10;99.90;;;;;;5013495;28;20486;-85
2021/11/01 05:32:59;;;;;;;0.30;0.20;;;10.10;99.90;;;;;;5013561;28;20459;-85
2021/11/01 05:35:26;;;;;;;0.30;0.20;;;10.10;99.90;;;;;;5013944;28;20835;-83
2021/11/01 05:37:53;;;;;;;0.30;0.20;;;10.10;99.90;;;;;;5013124;28;20935;-83
2021/11/01 05:40:20;;;;;;;0.30;0.20;;;10.10;99.90;;;;;;5013078;28;20939;-84
2021/11/01 05:42:49;;;;;;;0.30;0.30;;;10.10;99.90;;;;;;5012948;28;21022;-84
2021/11/01 05:45:16;;;;;;;0.30;0.20;;;10.10;99.90;;;;;;5013279;28;20474;-84
2021/11/01 05:47:45;;;;;;;0.30;0.20;;;10.10;99.90;;;;;;5013439;28;20467;-85
2021/11/01 05:50:12;;;;;;;0.30;0.20;;;10.00;99.90;;;;;;5013465;28;20447;-85
2021/11/01 05:52:41;;;;;;;0.33;0.30;;;10.00;99.90;;;;;;5013169;28;20452;-86
2021/11/01 05:55:16;;;;;;;0.40;0.33;;;10.00;99.90;;;;;;5013479;28;20530;-86
2021/11/01 05:57:50;;;;;;;0.30;0.20;;;9.90;99.90;;;;;;5013370;28;20435;-84
2021/11/01 06:00:37;;;;;;;0.40;0.30;;;9.90;99.90;;;;;;5016901;28;20440;-84
2021/11/01 06:03:06;;;;;;;0.30;0.20;;;9.90;99.90;;;;;;5016444;28;20967;-84
2021/11/01 06:08:28;;;;;;;0.30;0.20;;;9.80;99.90;;;;;;5016490;28;20970;-84
2021/11/01 06:13:40;;;;;;;0.30;0.20;;;9.70;99.90;;;;;;5019063;28;20501;-84
2021/11/01 06:16:09;;;;;;;0.30;0.30;;;9.70;99.90;;;;;;5017194;28;20874;-84
2021/11/01 06:18:40;;;;;;;0.30;0.20;;;9.60;99.90;;;;;;5017084;28;20538;-84
2021/11/01 06:21:11;;;;;;;0.30;0.20;;;9.60;99.90;;;;;;5016570;28;20500;-84
2021/11/01 06:23:39;;;;;;;0.30;0.30;;;9.40;99.90;;;;;;5016385;28;20471;-82
2021/11/01 06:26:06;;;;;;;0.30;0.20;;;9.40;99.90;;;;;;5016328;28;20479;-82
2021/11/01 06:28:33;;;;;;;1.53;0.30;;;9.40;99.90;;;;;;5016289;28;20451;-82
2021/11/01 06:31:05;;;;;;;0.30;0.30;;;9.30;99.90;;;;;;5015949;28;20460;-82
2021/11/01 06:33:51;;;;;;;0.30;0.20;;;9.30;99.90;;;;;;5015927;28;20467;-83
2021/11/01 06:44:58;;;;;;;0.30;0.20;;;9.00;99.90;;;;;;4995798;28;20498;-82
2021/11/01 06:50:17;;;;;;;0.30;0.20;;;9.10;99.90;;;;;;5016340;28;20423;-81
2021/11/01 06:53:08;;;;;;;0.30;0.20;;;9.00;99.90;;;;;;5016139;28;20455;-84
2021/11/01 07:15:03;;;;;;;0.30;0.20;;;8.90;99.90;;;;;;5015536;28;20420;-81
2021/11/01 07:17:41;;;;;;;0.30;0.30;;;8.90;99.90;;;;;;5015376;28;20895;-82
2021/11/01 07:26:06;;;;;;;0.30;0.20;;;8.70;99.90;;;;;;5015710;28;20435;-85
2021/11/01 08:21:14;;;;;;;0.30;0.20;;;8.80;99.90;;;;;;5014322;28;20435;-85
2021/11/01 08:23:57;;;;;;;0.30;0.30;;;8.70;99.90;;;;;;5014289;28;20475;-86
2021/11/01 08:38:01;;;;;;;0.30;0.30;;;8.70;99.90;;;;;;5014321;28;20411;-86
2021/11/01 08:43:25;;;;;;;0.30;0.30;;;8.70;99.90;;;;;;4999872;28;20494;-82
2021/11/01 08:46:08;;;;;;;0.30;0.30;;;8.70;99.90;;;;;;5013484;28;21069;-86
2021/11/01 08:48:46;;;;;;;0.30;0.20;;;8.80;99.90;;;;;;5013969;28;20519;-85
2021/11/01 09:08:08;;;;;;;0.30;0.30;;;8.90;99.90;;;;;;4988548;28;20561;-87
2021/11/01 09:10:56;;;;;;;0.30;0.20;;;9.00;99.90;;;;;;5014034;28;20457;-87
2021/11/01 09:18:41;;;;;;;0.30;0.20;;;9.00;99.90;;;;;;5013794;28;20471;-87
2021/11/01 09:24:52;;;;;;;0.30;0.20;;;9.00;99.90;;;;;;5003129;28;20442;-86
2021/11/01 09:27:21;;;;;;;0.30;0.30;;;8.90;99.90;;;;;;5013735;28;20487;-87
2021/11/01 09:30:01;;;;;;;0.30;0.20;;;9.00;99.90;;;;;;5013795;28;20452;-87
2021/11/01 09:38:11;;;;;;;0.30;0.27;;;9.00;99.90;;;;;;5017638;28;20542;-85
2021/11/01 09:40:56;;;;;;;0.30;0.20;;;9.00;99.90;;;;;;5017480;28;20429;-88
2021/11/01 09:43:25;;;;;;;0.30;0.23;;;9.00;99.90;;;;;;5017626;28;20463;-88
2021/11/01 09:45:55;;;;;;;0.60;0.60;;;9.10;99.90;;;;;;5017183;28;20815;-87
2021/11/01 09:48:22;;;;;;;0.30;0.30;;;9.00;99.90;;;;;;5017645;28;20435;-87
2021/11/01 09:50:51;;;;;;;0.30;0.20;;;9.10;99.90;;;;;;5017611;28;20436;-88
2021/11/01 09:53:20;;;;;;;0.30;0.20;;;9.20;99.90;;;;;;5017194;28;20514;-86
2021/11/01 09:55:49;;;;;;;0.30;0.30;;;9.10;99.90;;;;;;5016946;28;20974;-84
2021/11/01 10:01:03;;;;;;;0.30;0.30;;;9.10;99.90;;;;;;5017278;28;20462;-86
2021/11/01 10:03:36;;;;;;;0.30;0.20;;;9.00;99.90;;;;;;5017014;28;20876;-86
2021/11/01 10:06:12;;;;;;;0.30;0.20;;;9.10;99.90;;;;;;5017323;28;20789;-86
2021/11/01 10:08:39;;;;;;;0.30;0.20;;;9.10;99.90;;;;;;5016566;28;20959;-86
2021/11/01 10:11:18;;;;;;;0.30;0.30;;;9.00;99.90;;;;;;5016853;28;20539;-86
2021/11/01 10:13:49;;;;;;;0.30;0.20;;;9.00;99.90;;;;;;5016475;28;20451;-85
2021/11/01 10:19:25;;;;;;;0.30;0.20;;;9.10;99.90;;;;;;5017029;28;20399;-87
2021/11/01 10:21:55;;;;;;;0.60;0.60;;;9.20;99.90;;;;;;5016832;28;20424;-87
2021/11/01 10:24:27;;;;;;;0.30;0.30;;;9.30;99.90;;;;;;5016630;28;20424;-88
2021/11/01 10:26:56;;;;;;;0.37;0.27;;;9.30;99.90;;;;;;5017110;28;20475;-87
2021/11/01 10:29:23;;;;;;;0.73;0.73;;;9.30;99.90;;;;;;5017089;28;20859;-86
2021/11/01 10:31:50;;;;;;;0.30;0.30;;;9.20;99.90;;;;;;5016393;28;20466;-86
2021/11/01 10:34:18;;;;;;;0.30;0.20;;;9.30;99.90;;;;;;5016763;28;20939;-87
2021/11/01 10:36:48;;;;;;;2.53;0.60;;;9.30;99.90;;;;;;5016399;28;20848;-87
2021/11/01 10:39:20;;;;;;;0.30;0.30;;;9.30;99.90;;;;;;5016654;28;20439;-87
2021/11/01 10:41:53;;;;;;;0.30;0.30;;;9.50;99.90;;;;;;5016499;28;20435;-87
2021/11/01 11:12:33;;;;;;;0.43;0.43;;;9.60;99.90;;;;;;5015697;28;20546;-85
2021/11/01 11:15:09;;;;;;;0.40;0.40;;;9.70;99.90;;;;;;5015248;28;20907;-86
2021/11/01 11:17:44;;;;;;;0.40;0.30;;;9.70;99.90;;;;;;5015867;28;20432;-85
2021/11/01 11:20:28;;;;;;;0.50;0.50;;;9.70;99.90;;;;;;5015636;28;20443;-86
2021/11/01 11:26:18;;;;;;;0.60;0.30;;;9.90;99.90;;;;;;5015581;28;20409;-86
2021/11/01 11:37:43;;;;;;;0.30;0.20;;;10.20;99.90;;;;;;5015243;28;20407;-85
2021/11/01 11:40:34;;;;;;;0.30;0.30;;;10.30;99.90;;;;;;5015412;28;20850;-86
2021/11/01 11:43:28;;;;;;;0.30;0.20;;;10.20;99.90;;;;;;5014835;28;20467;-86
2021/11/01 11:48:50;;;;;;;0.30;0.20;;;10.10;99.90;;;;;;5015559;28;20999;-86
2021/11/01 11:51:17;;;;;;;0.30;0.30;;;10.10;99.90;;;;;;5016924;28;20467;-86
2021/11/01 11:53:57;;;;;;;0.30;0.30;;;10.00;99.90;;;;;;5016610;28;20468;-85
2021/11/01 11:56:29;;;;;;;0.30;0.20;;;10.00;99.90;;;;;;5014977;28;20907;-85
2021/11/01 11:59:04;;;;;;;0.30;0.30;;;10.00;99.90;;;;;;5014990;28;20434;-86
2021/11/01 12:01:34;;;;;;;0.70;0.40;;;10.00;99.90;;;;;;5015019;28;20435;-86
2021/11/01 12:04:02;;;;;;;0.30;0.20;;;10.00;99.90;;;;;;5015167;28;20513;-87
2021/11/01 12:06:51;;;;;;;0.30;0.20;;;10.00;99.90;;;;;;5015226;28;20447;-89
2021/11/01 12:09:27;;;;;;;0.30;0.20;;;10.00;99.90;;;;;;5015854;28;20442;-86
2021/11/01 12:17:48;;;;;;;0.30;0.30;;;10.10;99.90;;;;;;4954840;29;20398;-87
2021/11/01 12:20:16;;;;;;;0.40;0.30;;;10.20;99.90;;;;;;4990582;28;20443;-85
2021/11/01 12:22:47;;;;;;;0.30;0.30;;;10.20;99.90;;;;;;5014640;28;20470;-87
2021/11/01 12:25:19;;;;;;;0.30;0.30;;;10.20;99.90;;;;;;5015053;28;20436;-87
2021/11/01 12:27:56;;;;;;;0.30;0.30;;;10.30;99.90;;;;;;5014065;28;20826;-83
2021/11/01 12:30:27;;;;;;;0.30;0.20;;;10.30;99.90;;;;;;5014243;28;20423;-87
2021/11/01 12:32:56;;;;;;;0.87;0.40;;;10.30;99.90;;;;;;5014643;28;20827;-88
2021/11/01 12:35:26;;;;;;;0.30;0.30;;;10.30;99.90;;;;;;5014956;28;20535;-86
2021/11/01 12:37:55;;;;;;;0.30;0.30;;;10.30;99.90;;;;;;5014592;28;20479;-87
2021/11/01 12:40:28;;;;;;;0.30;0.30;;;10.20;99.90;;;;;;5014354;28;20478;-85
2021/11/01 12:43:24;;;;;;;0.40;0.30;;;10.20;99.90;;;;;;5013998;28;20529;-85
2021/11/01 12:49:20;;;;;;;0.30;0.30;;;10.20;99.90;;;;;;5014171;28;20458;-84
2021/11/01 12:57:27;;;;;;;0.30;0.27;;;10.30;99.90;;;;;;5013693;28;20407;-84
2021/11/01 12:59:54;;;;;;;0.40;0.33;;;10.30;99.90;;;;;;5013564;28;20538;-87
2021/11/01 13:02:33;;;;;;;0.30;0.20;;;10.30;99.90;;;;;;5014196;28;20991;-85
2021/11/01 13:05:05;;;;;;;0.50;0.50;;;10.30;99.90;;;;;;5013707;28;20439;-83
2021/11/01 13:07:44;;;;;;;0.30;0.20;;;10.30;99.90;;;;;;5013239;28;20467;-83
2021/11/01 13:10:17;;;;;;;0.30;0.30;;;10.20;99.90;;;;;;5013245;28;20908;-83
2021/11/01 13:18:18;;;;;;;0.30;0.30;;;10.30;99.90;;;;;;5013615;28;20408;-83
2021/11/01 13:20:51;;;;;;;0.40;0.30;;;10.30;99.90;;;;;;5014088;28;20439;-83
2021/11/01 13:23:19;;;;;;;0.30;0.30;;;10.30;99.90;;;;;;5013481;28;20922;-83
2021/11/01 13:26:04;;;;;;;0.40;0.30;;;10.40;99.90;;;;;;5442985;23;20481;-84
2021/11/01 13:36:40;;;;;;;0.30;0.20;;;10.40;99.90;;;;;;4974533;28;20822;-83
2021/11/01 13:39:08;;;;;;;0.30;0.20;;;10.40;99.90;;;;;;4974364;28;20437;-83
2021/11/01 13:41:35;;;;;;;0.30;0.30;;;10.40;99.90;;;;;;4974525;28;20446;-83
2021/11/01 13:44:10;;;;;;;0.40;0.40;;;10.40;99.90;;;;;;4973969;28;20484;-82
2021/11/01 13:46:44;;;;;;;0.30;0.20;;;10.40;99.90;;;;;;4974470;28;20452;-82
2021/11/01 13:49:11;;;;;;;0.30;0.20;;;10.50;99.90;;;;;;4974546;28;20441;-82
2021/11/01 13:51:39;;;;;;;0.40;0.30;;;10.50;99.90;;;;;;4974095;28;20933;-82
2021/11/01 13:54:10;;;;;;;0.30;0.20;;;10.40;99.90;;;;;;4974963;28;20481;-82
2021/11/01 13:56:41;;;;;;;0.30;0.20;;;10.40;99.90;;;;;;4974182;28;20453;-82
2021/11/01 13:59:25;;;;;;;0.30;0.20;;;10.30;99.90;;;;;;4974251;28;20445;-82
2021/11/01 14:02:16;;;;;;;0.30;0.30;;;10.30;99.90;;;;;;4974099;28;20528;-82
2021/11/01 14:13:06;;;;;;;0.30;0.20;;;10.40;99.90;;;;;;4973854;28;20471;-82
2021/11/01 15:00:53;;;;;;;0.30;0.30;;;10.60;99.90;;;;;;5063288;23;20521;-85
2021/11/01 15:14:59;;;;;;;0.30;0.30;;;10.70;99.90;;;;;;5015692;28;20992;-84
2021/11/01 15:17:43;;;;;;;0.30;0.30;;;10.70;99.90;;;;;;5015605;28;20432;-85
2021/11/01 15:20:22;;;;;;;0.60;0.30;;;10.70;99.90;;;;;;5015878;28;20451;-85
2021/11/01 15:23:08;;;;;;;0.40;0.30;;;10.70;99.90;;;;;;5016370;28;20490;-88
2021/11/01 15:28:57;;;;;;;0.40;0.40;;;10.70;99.90;;;;;;5015184;28;20493;-82
2021/11/01 15:34:42;;;;;;;0.40;0.40;;;10.60;99.90;;;;;;5014847;28;20444;-82
2021/11/01 15:37:32;;;;;;;0.30;0.30;;;10.60;99.90;;;;;;5016592;28;20454;-87
2021/11/01 15:40:14;;;;;;;0.60;0.60;;;10.60;99.90;;;;;;5015176;28;20436;-82
2021/11/01 16:18:31;;;;;;;0.30;0.30;;;9.90;99.90;;;;;;5014484;28;20427;-84
2021/11/01 16:20:59;;;;;;;0.40;0.30;;;9.80;99.90;;;;;;5015066;28;20828;-83
2021/11/01 16:23:35;;;;;;;0.30;0.30;;;9.80;99.90;;;;;;5014264;28;20471;-83
2021/11/01 16:26:12;;;;;;;0.30;0.23;;;9.80;99.90;;;;;;5014256;28;20943;-83
2021/11/01 16:28:38;;;;;;;0.30;0.30;;;9.80;99.90;;;;;;5014100;28;20467;-82
2021/11/01 16:33:54;;;;;;;1.70;0.40;;;9.60;99.90;;;;;;5011490;28;20455;-88
2021/11/01 16:36:40;;;;;;;0.40;0.40;;;9.50;99.90;;;;;;5015435;28;20451;-88
2021/11/01 16:39:07;;;;;;;0.40;0.33;;;9.50;99.90;;;;;;5015299;28;20478;-91
2021/11/01 16:41:35;;;;;;;0.30;0.30;;;9.40;99.90;;;;;;5016062;28;20442;-88
2021/11/01 16:44:11;;;;;;;0.30;0.30;;;9.40;99.90;;;;;;5017667;28;20474;-89
2021/11/01 16:46:39;;;;;;;0.40;0.40;;;9.40;99.90;;;;;;5015914;28;20436;-89
2021/11/01 16:49:08;;;;;;;0.60;0.40;;;9.30;99.90;;;;;;5015285;28;20476;-90
2021/11/01 16:51:36;;;;;;;0.47;0.30;;;9.30;99.90;;;;;;5014547;28;20930;-89
2021/11/01 16:54:04;;;;;;;0.30;0.30;;;9.30;99.90;;;;;;5015196;28;20983;-89
2021/11/01 16:56:43;;;;;;;0.40;0.40;;;9.40;99.90;;;;;;5015355;28;20923;-89
2021/11/01 16:59:16;;;;;;;0.63;0.63;;;9.30;99.90;;;;;;5014445;28;20498;-89
2021/11/01 17:01:51;;;;;;;0.60;0.50;;;9.30;99.90;;;;;;5018404;28;20808;-89
2021/11/01 17:04:21;;;;;;;1.60;0.40;;;9.30;99.90;;;;;;5015573;28;20439;-89
2021/11/01 17:06:54;;;;;;;0.30;0.30;;;9.30;99.90;;;;;;5015464;28;20416;-89
2021/11/01 17:09:41;;;;;;;0.30;0.20;;;9.20;99.90;;;;;;5014430;28;20471;-90
2021/11/01 17:23:25;;;;;;;0.30;0.30;;;9.10;99.90;;;;;;5014290;28;20451;-90
2021/11/01 17:26:00;;;;;;;0.40;0.30;;;9.10;99.90;;;;;;5014716;28;20424;-89
2021/11/01 17:28:42;;;;;;;0.37;0.33;;;9.10;99.90;;;;;;5014567;28;20474;-89
2021/11/01 17:31:27;;;;;;;0.40;0.40;;;9.10;99.90;;;;;;5014154;28;20908;-90
2021/11/01 17:36:55;;;;;;;0.40;0.30;;;9.10;99.90;;;;;;5014544;28;20403;-90
2021/11/01 18:38:07;;;;;;;0.30;0.30;;;8.50;99.90;;;;;;5016865;28;20776;-88
2021/11/01 18:40:38;;;;;;;0.30;0.30;;;8.50;99.90;;;;;;5016501;28;20440;-87
2021/11/01 18:43:14;;;;;;;0.30;0.30;;;8.40;99.90;;;;;;5016532;28;20487;-84
2021/11/01 18:51:27;;;;;;;0.30;0.30;;;8.30;99.90;;;;;;5017039;28;20403;-88
2021/11/01 18:54:07;;;;;;;0.30;0.30;;;8.20;99.90;;;;;;5016622;28;20975;-88
2021/11/01 18:56:37;;;;;;;0.40;0.30;;;8.10;99.90;;;;;;5016836;28;20539;-88
2021/11/01 18:59:07;;;;;;;0.30;0.30;;;8.10;99.90;;;;;;5016278;28;20515;-89
2021/11/01 19:01:36;;;;;;;0.30;0.20;;;8.00;99.90;;;;;;5016710;28;20436;-87
2021/11/01 19:04:08;;;;;;;0.40;0.30;;;8.00;99.90;;;;;;5016154;28;20525;-88
2021/11/01 19:06:43;;;;;;;0.30;0.30;;;7.90;99.90;;;;;;5015286;28;20471;-88
2021/11/01 19:09:25;;;;;;;0.33;0.30;;;7.90;99.90;;;;;;5016078;28;20823;-87
2021/11/01 20:05:04;;;;;;;0.43;0.30;;;7.20;99.90;;;;;;5015697;28;20899;-89
2021/11/01 20:10:52;;;;;;;0.30;0.30;;;7.10;99.90;;;;;;5014297;28;20492;-89
2021/11/01 20:13:27;;;;;;;0.37;0.37;;;7.10;99.90;;;;;;5015311;28;20459;-88
2021/11/01 20:16:32;;;;;;;0.40;0.40;;;7.10;99.90;;;;;;5015108;28;20489;-88
2021/11/01 21:25:48;;;;;;;0.30;0.30;;;6.70;99.90;;;;;;5015711;28;20476;-92
2021/11/01 21:28:16;;;;;;;0.50;0.30;;;6.70;99.90;;;;;;5015375;28;20496;-92
2021/11/01 21:30:43;;;;;;;0.40;0.40;;;6.70;99.90;;;;;;5020143;28;20452;-92
2021/11/01 21:33:14;;;;;;;0.30;0.30;;;6.70;99.90;;;;;;5029851;28;20479;-93
2021/11/01 21:35:44;;;;;;;0.30;0.30;;;6.70;99.90;;;;;;5030091;28;20432;-92
2021/11/01 21:38:12;;;;;;;0.30;0.30;;;6.70;99.90;;;;;;5024149;28;20432;-92
2021/11/01 21:40:40;;;;;;;0.30;0.30;;;6.70;99.90;;;;;;5019974;28;20823;-92
2021/11/01 21:43:06;;;;;;;0.30;0.30;;;6.70;99.90;;;;;;5018843;28;20471;-91
2021/11/01 21:45:35;;;;;;;0.60;0.50;;;6.80;99.90;;;;;;5018731;28;20447;-92
2021/11/01 21:48:01;;;;;;;0.30;0.30;;;6.80;99.90;;;;;;5018675;28;20439;-92
2021/11/01 21:50:28;;;;;;;0.37;0.27;;;6.80;99.90;;;;;;5018606;28;20974;-92
2021/11/01 21:52:58;;;;;;;0.30;0.30;;;6.80;99.90;;;;;;5018403;28;21013;-91
2021/11/01 21:55:26;;;;;;;0.30;0.20;;;6.90;99.90;;;;;;5018495;28;20965;-90
2021/11/01 21:57:58;;;;;;;0.30;0.30;;;6.80;99.90;;;;;;5018665;28;20435;-91
2021/11/01 22:00:59;;;;;;;0.30;0.20;;;6.80;99.90;;;;;;5018422;28;20474;-91
2021/11/01 22:17:17;;;;;;;0.30;0.30;;;6.70;99.90;;;;;;4988256;28;20455;-92
2021/11/01 22:19:56;;;;;;;0.30;0.20;;;6.70;99.90;;;;;;5018194;28;20451;-91
2021/11/01 22:22:51;;;;;;;0.30;0.30;;;6.70;99.90;;;;;;5018251;28;20474;-92
2021/11/01 22:25:22;;;;;;;0.30;0.20;;;6.70;99.90;;;;;;5018677;28;20518;-92
2021/11/01 22:39:08;;;;;;;0.30;0.30;;;6.70;99.90;;;;;;5018195;28;20427;-91